Impacts TAF Board INFO
FOR SITUATIONAL AWARENESS. NOT TO BE USED FOR FLIGHT PLANNING PURPOSES.
IDs:

KIAD - Washington/Dulles In, VA, US

Issued at 1125 UTC 22 Nov 2017
Updated at 1427 UTC 22 Nov 2017
Potential Impact None Slight Moderate High
Time<<23/15Z 23/16Z 23/17Z 23/18Z 23/19Z 23/20Z 23/21Z 23/22Z 23/23Z 24/00Z 24/01Z 24/02Z 24/03Z
Type PRVL PRVL PRVL
VIS >6 >6 >6
CIG -- -- --
Cover SKC SKC SKC
FltCat VFR VFR VFR
WX -- -- --
WDir 340 340 270
WSpd 5 5 5
WGst -- -- --

Raw TAF
KIAD 221125Z 2212/2318 30007KT P6SM SCT060 BKN100
  FM221400 32015G27KT P6SM FEW060
  FM230000 33010KT P6SM SKC
  FM230300 34005KT P6SM SKC
  FM231700 27005KT P6SM SKC


METAR Board
Radar Display
Forecast Discussion

FOR SITUATIONAL AWARENESS. NOT TO BE USED FOR FLIGHT PLANNING PURPOSES.